Time;durP1;ratioP1;P1;durP2;ratioP2;P2;SDS_P1;SDS_P2;PMS_P1;PMS_P2;Temp;Humidity;BMP_temperature;BMP_pressure;BME280_temperature;BME280_humidity;BME280_pressure;Samples;Min_cycle;Max_cycle;Signal;HPM_P1;HPM_P2
2023/01/28 00:00:09;;;;;;;2.08;1.73;;;;;;;;;;2090369;28;20021;-71
2023/01/28 00:01:28;;;;;;;2.38;1.88;;;;;;;;;;2084726;28;20033;-71
2023/01/28 00:02:48;;;;;;;2.00;1.63;;;;;;;;;;2088392;28;20029;-71
2023/01/28 00:04:08;;;;;;;1.65;1.55;;;;;;;;;;2087811;28;20390;-71
2023/01/28 00:05:28;;;;;;;2.30;1.90;;;;;;;;;;2085843;28;20033;-71
2023/01/28 00:06:47;;;;;;;3.85;1.85;;;;;;;;;;2084472;28;20124;-71
2023/01/28 00:08:06;;;;;;;2.40;1.88;;;;;;;;;;2083639;28;20037;-71
2023/01/28 00:09:25;;;;;;;3.10;1.55;;;;;;;;;;2086284;28;21991;-71
2023/01/28 00:10:44;;;;;;;2.45;1.70;;;;;;;;;;2085900;28;20703;-71
2023/01/28 00:12:03;;;;;;;1.77;1.63;;;;;;;;;;2083364;28;20028;-71
2023/01/28 00:13:22;;;;;;;3.60;1.77;;;;;;;;;;2094438;28;20037;-71
2023/01/28 00:14:41;;;;;;;2.90;1.20;;;;;;;;;;2090168;28;20120;-71
2023/01/28 00:16:01;;;;;;;4.28;1.80;;;;;;;;;;2088253;28;20040;-71
2023/01/28 00:17:20;;;;;;;2.85;1.63;;;;;;;;;;2089456;28;20040;-72
2023/01/28 00:18:39;;;;;;;1.92;1.42;;;;;;;;;;2084677;28;20029;-71
2023/01/28 00:19:58;;;;;;;3.45;1.73;;;;;;;;;;2086730;28;20045;-71
2023/01/28 00:21:17;;;;;;;2.08;1.60;;;;;;;;;;2084570;28;20025;-71
2023/01/28 00:22:36;;;;;;;3.33;1.75;;;;;;;;;;2088347;28;20107;-71
2023/01/28 00:23:55;;;;;;;3.13;1.48;;;;;;;;;;2084533;28;20111;-71
2023/01/28 00:25:14;;;;;;;2.38;1.65;;;;;;;;;;2083321;28;20033;-71
2023/01/28 00:26:34;;;;;;;3.95;1.90;;;;;;;;;;2082877;28;20037;-71
2023/01/28 00:27:54;;;;;;;1.90;1.50;;;;;;;;;;2087437;28;20033;-71
2023/01/28 00:29:13;;;;;;;3.22;1.63;;;;;;;;;;2085778;28;20513;-71
2023/01/28 00:30:31;;;;;;;2.47;1.92;;;;;;;;;;2085884;28;20052;-71
2023/01/28 00:31:50;;;;;;;3.40;1.60;;;;;;;;;;2086284;28;20037;-69
2023/01/28 00:33:09;;;;;;;2.00;1.80;;;;;;;;;;2087289;28;20158;-70
2023/01/28 00:34:28;;;;;;;2.10;1.27;;;;;;;;;;2087369;28;20116;-72
2023/01/28 00:35:56;;;;;;;2.05;1.45;;;;;;;;;;2086222;28;20036;-69
2023/01/28 00:37:15;;;;;;;3.53;1.73;;;;;;;;;;2088640;28;20033;-70
2023/01/28 00:38:34;;;;;;;1.50;1.40;;;;;;;;;;2082878;28;20390;-70
2023/01/28 00:39:53;;;;;;;2.25;1.58;;;;;;;;;;2086211;28;20022;-70
2023/01/28 00:41:16;;;;;;;2.28;1.55;;;;;;;;;;2087542;28;20109;-71
2023/01/28 00:42:36;;;;;;;;;;;;;;;;;;2086388;28;20021;-70
2023/01/28 00:43:55;;;;;;;2.15;1.67;;;;;;;;;;2085590;28;20066;-70
2023/01/28 00:45:14;;;;;;;3.17;1.75;;;;;;;;;;2082724;28;20115;-70
2023/01/28 00:46:33;;;;;;;3.72;1.75;;;;;;;;;;2084216;28;20147;-69
2023/01/28 00:47:52;;;;;;;1.63;1.52;;;;;;;;;;2087244;28;20482;-69
2023/01/28 00:49:11;;;;;;;5.40;1.60;;;;;;;;;;2085012;28;20029;-69
2023/01/28 00:50:30;;;;;;;2.17;1.55;;;;;;;;;;2085622;28;20922;-69
2023/01/28 00:51:49;;;;;;;2.38;1.30;;;;;;;;;;2086987;28;20485;-70
2023/01/28 00:53:08;;;;;;;1.40;1.30;;;;;;;;;;2083962;28;20025;-69
2023/01/28 00:54:27;;;;;;;1.52;1.40;;;;;;;;;;2084280;28;20125;-69
2023/01/28 00:55:46;;;;;;;3.38;1.55;;;;;;;;;;2087050;28;20111;-72
2023/01/28 00:57:05;;;;;;;4.75;1.40;;;;;;;;;;2084158;28;20048;-70
2023/01/28 00:58:24;;;;;;;5.10;1.70;;;;;;;;;;2092583;28;20083;-71
2023/01/28 00:59:43;;;;;;;3.45;1.65;;;;;;;;;;2088173;28;20463;-71
2023/01/28 01:01:13;;;;;;;3.75;1.50;;;;;;;;;;2087631;28;20052;-70
2023/01/28 01:02:32;;;;;;;1.42;1.20;;;;;;;;;;2086132;28;20115;-70
2023/01/28 01:03:56;;;;;;;3.22;1.35;;;;;;;;;;2085781;28;20037;-70
2023/01/28 01:05:15;;;;;;;1.92;1.42;;;;;;;;;;2087196;28;20462;-70
2023/01/28 01:06:35;;;;;;;2.33;1.50;;;;;;;;;;2085233;28;20025;-70
2023/01/28 01:07:54;;;;;;;1.73;1.30;;;;;;;;;;2087053;28;20424;-70
2023/01/28 01:09:13;;;;;;;2.22;1.73;;;;;;;;;;2086752;28;20107;-70
2023/01/28 01:10:33;;;;;;;1.92;1.40;;;;;;;;;;2088138;28;20099;-70
2023/01/28 01:11:52;;;;;;;1.27;1.02;;;;;;;;;;2088088;28;20033;-70
2023/01/28 01:13:11;;;;;;;1.42;1.17;;;;;;;;;;2087271;28;20021;-69
2023/01/28 01:14:30;;;;;;;2.17;1.40;;;;;;;;;;2087799;28;20473;-70
2023/01/28 01:15:49;;;;;;;1.55;1.30;;;;;;;;;;2087631;28;20040;-70
2023/01/28 01:17:07;;;;;;;3.72;1.50;;;;;;;;;;2087653;28;20029;-70
2023/01/28 01:18:26;;;;;;;2.60;1.70;;;;;;;;;;2090967;28;20028;-70
2023/01/28 01:19:45;;;;;;;1.52;1.25;;;;;;;;;;2085452;28;20029;-70
2023/01/28 01:21:07;;;;;;;1.83;1.13;;;;;;;;;;2087291;28;20021;-70
2023/01/28 01:22:26;;;;;;;3.17;1.55;;;;;;;;;;2089454;28;20485;-70
2023/01/28 01:23:46;;;;;;;2.05;1.30;;;;;;;;;;2086659;28;20517;-70
2023/01/28 01:25:05;;;;;;;1.63;1.25;;;;;;;;;;2084660;28;20024;-70
2023/01/28 01:26:26;;;;;;;2.70;1.35;;;;;;;;;;2089494;28;20112;-69
2023/01/28 01:27:47;;;;;;;3.85;1.48;;;;;;;;;;2088553;28;20021;-70
2023/01/28 01:29:08;;;;;;;2.65;1.30;;;;;;;;;;2089809;28;20580;-70
2023/01/28 01:30:27;;;;;;;1.15;0.95;;;;;;;;;;2087560;28;20025;-70
2023/01/28 01:31:46;;;;;;;3.28;1.27;;;;;;;;;;2085084;28;20049;-70
2023/01/28 01:33:05;;;;;;;2.85;1.30;;;;;;;;;;2086152;28;20060;-70
2023/01/28 01:34:24;;;;;;;1.40;1.27;;;;;;;;;;2085932;28;20046;-69
2023/01/28 01:35:43;;;;;;;1.83;1.10;;;;;;;;;;2086377;28;20683;-70
2023/01/28 01:37:05;;;;;;;3.05;1.17;;;;;;;;;;2088914;28;20476;-70
2023/01/28 01:38:24;;;;;;;1.50;1.40;;;;;;;;;;2089228;28;20096;-70
2023/01/28 01:39:43;;;;;;;2.75;1.10;;;;;;;;;;2085152;28;20138;-70
2023/01/28 01:41:03;;;;;;;1.58;0.80;;;;;;;;;;2087505;28;20057;-70
2023/01/28 01:42:23;;;;;;;1.88;1.40;;;;;;;;;;2087275;28;20029;-70
2023/01/28 01:43:53;;;;;;;3.30;1.10;;;;;;;;;;2088643;28;20025;-71
2023/01/28 01:45:13;;;;;;;1.35;0.80;;;;;;;;;;2088607;28;20028;-70
2023/01/28 01:46:32;;;;;;;2.03;1.20;;;;;;;;;;2088694;28;20100;-71
2023/01/28 01:48:01;;;;;;;2.72;1.15;;;;;;;;;;2087835;28;20389;-70
2023/01/28 01:49:22;;;;;;;1.20;0.88;;;;;;;;;;2085095;28;20032;-71
2023/01/28 01:50:51;;;;;;;1.65;1.55;;;;;;;;;;2087021;28;20036;-70
2023/01/28 01:52:14;;;;;;;2.67;1.00;;;;;;;;;;2088356;28;20033;-70
2023/01/28 01:53:32;;;;;;;3.00;1.20;;;;;;;;;;2087005;28;20033;-70
2023/01/28 01:54:53;;;;;;;2.45;1.20;;;;;;;;;;2083947;28;20029;-70
2023/01/28 01:56:14;;;;;;;1.40;0.95;;;;;;;;;;2088499;28;20021;-70
2023/01/28 01:57:33;;;;;;;1.17;0.98;;;;;;;;;;2085332;28;20040;-70
2023/01/28 01:58:54;;;;;;;1.65;1.00;;;;;;;;;;2082864;28;20740;-70
2023/01/28 02:00:14;;;;;;;1.17;0.90;;;;;;;;;;2085574;28;20060;-70
2023/01/28 02:01:33;;;;;;;1.25;0.90;;;;;;;;;;2088243;28;20017;-70
2023/01/28 02:02:52;;;;;;;2.40;1.00;;;;;;;;;;2085277;28;20464;-70
2023/01/28 02:04:18;;;;;;;1.35;0.95;;;;;;;;;;2087963;28;20484;-70
2023/01/28 02:05:37;;;;;;;1.95;1.00;;;;;;;;;;2085804;28;20033;-70
2023/01/28 02:06:58;;;;;;;1.17;1.08;;;;;;;;;;2085561;28;20734;-70
2023/01/28 02:08:20;;;;;;;2.60;1.20;;;;;;;;;;2085028;28;21154;-70
2023/01/28 02:09:40;;;;;;;0.82;0.82;;;;;;;;;;2089283;28;20068;-70
2023/01/28 02:11:06;;;;;;;1.10;0.90;;;;;;;;;;2086171;28;20029;-71
2023/01/28 02:12:29;;;;;;;2.28;0.80;;;;;;;;;;2089493;28;20687;-70
2023/01/28 02:13:50;;;;;;;1.23;0.98;;;;;;;;;;2090461;28;20041;-71
2023/01/28 02:15:12;;;;;;;1.88;0.93;;;;;;;;;;2082718;28;20033;-70
2023/01/28 02:16:31;;;;;;;2.63;1.08;;;;;;;;;;2083533;28;20036;-70
2023/01/28 02:17:51;;;;;;;1.45;0.80;;;;;;;;;;2087581;28;20033;-70
2023/01/28 02:19:11;;;;;;;4.82;1.10;;;;;;;;;;2091365;28;20103;-70
2023/01/28 02:20:42;;;;;;;1.42;0.70;;;;;;;;;;2087369;28;20041;-70
2023/01/28 02:22:01;;;;;;;1.17;0.90;;;;;;;;;;2082646;28;20024;-70
2023/01/28 02:23:27;;;;;;;1.73;1.27;;;;;;;;;;2086744;28;20029;-70
2023/01/28 02:25:04;;;;;;;1.05;0.80;;;;;;;;;;2088663;28;20029;-70
2023/01/28 02:26:26;;;;;;;1.20;0.88;;;;;;;;;;2084537;28;20496;-70
2023/01/28 02:28:04;;;;;;;1.13;0.98;;;;;;;;;;2086948;28;20032;-70
2023/01/28 02:29:26;;;;;;;2.03;1.00;;;;;;;;;;2088752;28;20029;-70
2023/01/28 02:30:57;;;;;;;1.90;1.15;;;;;;;;;;2086677;28;20051;-70
2023/01/28 02:32:19;;;;;;;1.30;0.80;;;;;;;;;;2085000;28;20029;-70
2023/01/28 02:33:44;;;;;;;0.82;0.70;;;;;;;;;;2086602;28;20029;-70
2023/01/28 02:35:17;;;;;;;1.20;1.10;;;;;;;;;;2087699;28;20020;-70
2023/01/28 02:36:53;;;;;;;0.93;0.88;;;;;;;;;;2088638;28;20085;-70
2023/01/28 02:38:30;;;;;;;2.33;1.02;;;;;;;;;;2088354;28;20419;-70
2023/01/28 02:39:58;;;;;;;1.48;1.13;;;;;;;;;;2086373;28;20037;-70
2023/01/28 02:41:22;;;;;;;4.38;1.20;;;;;;;;;;2086862;28;20120;-70
2023/01/28 02:42:41;;;;;;;1.30;0.70;;;;;;;;;;2090454;28;20029;-70
2023/01/28 02:44:01;;;;;;;2.15;1.15;;;;;;;;;;2082217;28;20033;-70
2023/01/28 02:48:47;;;;;;;2.78;0.90;;;;;;;;;;2085369;28;20020;-70
2023/01/28 02:50:08;;;;;;;0.80;0.80;;;;;;;;;;2086143;28;21757;-70
2023/01/28 02:51:38;;;;;;;1.55;0.90;;;;;;;;;;2085099;28;20528;-70
2023/01/28 02:54:54;;;;;;;0.70;0.63;;;;;;;;;;2081829;28;20041;-71
2023/01/28 02:56:18;;;;;;;1.80;1.00;;;;;;;;;;2085178;28;20029;-71
2023/01/28 02:57:53;;;;;;;2.35;0.90;;;;;;;;;;2087369;28;20065;-70
2023/01/28 02:59:31;;;;;;;1.10;0.98;;;;;;;;;;2088816;28;20025;-71
2023/01/28 03:00:57;;;;;;;4.88;1.00;;;;;;;;;;2086907;28;20021;-70
2023/01/28 03:02:16;;;;;;;2.55;0.70;;;;;;;;;;2087867;28;20033;-72
2023/01/28 03:03:41;;;;;;;3.20;0.90;;;;;;;;;;2086825;28;20025;-70
2023/01/28 03:05:06;;;;;;;1.13;0.70;;;;;;;;;;2089470;28;20036;-71
2023/01/28 03:06:34;;;;;;;2.25;1.17;;;;;;;;;;2088550;28;20184;-70
2023/01/28 03:07:53;;;;;;;2.47;0.88;;;;;;;;;;2084330;28;20108;-70
2023/01/28 03:09:22;;;;;;;2.20;0.80;;;;;;;;;;2088638;28;20029;-70
2023/01/28 03:10:41;;;;;;;1.75;1.00;;;;;;;;;;2086541;28;20029;-71
2023/01/28 03:37:21;;;;;;;1.00;0.70;;;;;;;;;;2084872;28;20033;-70
2023/01/28 03:38:42;;;;;;;0.80;0.60;;;;;;;;;;2086563;28;20032;-70
2023/01/28 03:40:03;;;;;;;1.50;0.75;;;;;;;;;;2086200;28;20071;-70
2023/01/28 03:41:24;;;;;;;1.40;1.05;;;;;;;;;;2089565;28;20092;-70
2023/01/28 03:42:43;;;;;;;2.55;0.73;;;;;;;;;;2085853;28;20036;-70
2023/01/28 03:45:39;;;;;;;0.88;0.80;;;;;;;;;;2082679;28;20030;-70
2023/01/28 03:46:58;;;;;;;4.50;1.00;;;;;;;;;;2085172;28;20459;-70
2023/01/28 03:48:18;;;;;;;3.55;0.70;;;;;;;;;;2087512;28;20410;-70
2023/01/28 03:49:49;;;;;;;0.80;0.80;;;;;;;;;;2085533;28;20041;-70
2023/01/28 03:51:08;;;;;;;2.50;0.60;;;;;;;;;;2085595;28;20068;-70
2023/01/28 03:52:29;;;;;;;2.90;1.40;;;;;;;;;;2083899;28;20049;-70
2023/01/28 03:53:48;;;;;;;3.97;1.00;;;;;;;;;;2084976;28;20045;-70
2023/01/28 03:55:12;;;;;;;6.60;2.75;;;;;;;;;;2085449;28;20021;-70
2023/01/28 03:56:39;;;;;;;0.70;0.52;;;;;;;;;;2087524;28;20493;-70
2023/01/28 03:57:57;;;;;;;1.38;0.88;;;;;;;;;;2086813;28;20120;-70
2023/01/28 03:59:17;;;;;;;0.50;0.50;;;;;;;;;;2086201;28;20107;-70
2023/01/28 04:00:40;;;;;;;1.27;0.82;;;;;;;;;;2084212;28;21399;-70
2023/01/28 04:02:02;;;;;;;1.50;0.57;;;;;;;;;;2087785;28;20033;-70
2023/01/28 04:03:21;;;;;;;2.70;0.88;;;;;;;;;;2084590;28;20053;-70
2023/01/28 04:04:41;;;;;;;6.25;0.60;;;;;;;;;;2088246;28;20060;-70
2023/01/28 04:06:01;;;;;;;1.27;0.80;;;;;;;;;;2085193;28;20473;-70
2023/01/28 04:07:20;;;;;;;1.50;0.73;;;;;;;;;;2086009;28;20028;-71
2023/01/28 04:08:39;;;;;;;0.98;0.75;;;;;;;;;;2083760;28;20049;-70
2023/01/28 04:09:58;;;;;;;0.63;0.60;;;;;;;;;;2086164;28;20573;-70
2023/01/28 04:11:19;;;;;;;1.02;0.60;;;;;;;;;;2084435;28;20040;-70
2023/01/28 04:12:40;;;;;;;1.95;0.95;;;;;;;;;;2089684;28;20037;-70
2023/01/28 04:13:59;;;;;;;1.60;0.80;;;;;;;;;;2086450;28;20038;-70
2023/01/28 04:15:18;;;;;;;1.45;0.60;;;;;;;;;;2084335;28;20028;-70
2023/01/28 04:16:37;;;;;;;1.77;0.60;;;;;;;;;;2085305;28;20116;-70
2023/01/28 04:17:56;;;;;;;0.85;0.60;;;;;;;;;;2086509;28;20250;-70
2023/01/28 04:19:15;;;;;;;4.40;0.60;;;;;;;;;;2085989;28;20037;-70
2023/01/28 04:20:34;;;;;;;1.63;0.45;;;;;;;;;;2082383;28;20705;-70
2023/01/28 04:21:54;;;;;;;1.38;0.50;;;;;;;;;;2087277;28;20116;-70
2023/01/28 04:23:13;;;;;;;1.08;0.73;;;;;;;;;;2088135;28;20431;-70
2023/01/28 04:24:32;;;;;;;1.25;0.60;;;;;;;;;;2086129;28;20025;-71
2023/01/28 04:25:51;;;;;;;0.80;0.60;;;;;;;;;;2085039;28;20025;-70
2023/01/28 04:27:10;;;;;;;1.08;0.50;;;;;;;;;;2087206;28;20103;-70
2023/01/28 04:28:29;;;;;;;0.40;0.40;;;;;;;;;;2084833;28;20041;-70
2023/01/28 04:29:47;;;;;;;1.83;0.57;;;;;;;;;;2085390;28;20116;-70
2023/01/28 04:31:06;;;;;;;1.67;0.88;;;;;;;;;;2084741;28;20032;-70
2023/01/28 04:32:25;;;;;;;2.70;0.60;;;;;;;;;;2086205;28;20474;-70
2023/01/28 04:33:44;;;;;;;1.05;0.50;;;;;;;;;;2087083;28;20041;-70
2023/01/28 04:35:03;;;;;;;1.83;0.50;;;;;;;;;;2085941;28;20032;-70
2023/01/28 04:36:22;;;;;;;1.33;0.57;;;;;;;;;;2085710;28;20033;-70
2023/01/28 04:37:42;;;;;;;2.17;0.55;;;;;;;;;;2083624;28;20120;-70
2023/01/28 04:39:01;;;;;;;1.13;0.40;;;;;;;;;;2081721;28;20041;-70
2023/01/28 04:40:20;;;;;;;2.92;0.70;;;;;;;;;;2082380;28;20554;-70
2023/01/28 04:41:39;;;;;;;2.78;0.70;;;;;;;;;;2087493;28;20025;-70
2023/01/28 04:42:57;;;;;;;3.92;0.75;;;;;;;;;;2085716;28;20036;-71
2023/01/28 04:44:16;;;;;;;1.77;0.70;;;;;;;;;;2087657;28;20024;-70
2023/01/28 04:45:35;;;;;;;4.28;0.90;;;;;;;;;;2087849;28;20033;-70
2023/01/28 04:46:54;;;;;;;2.25;1.02;;;;;;;;;;2087315;28;20052;-70
2023/01/28 04:48:14;;;;;;;8.95;0.77;;;;;;;;;;2088203;28;20032;-72
2023/01/28 04:49:33;;;;;;;2.17;0.60;;;;;;;;;;2086664;28;20041;-71
2023/01/28 04:50:52;;;;;;;1.75;0.47;;;;;;;;;;2085873;28;20515;-70
2023/01/28 04:52:11;;;;;;;2.20;0.70;;;;;;;;;;2084339;28;20119;-70
2023/01/28 04:53:29;;;;;;;2.35;0.60;;;;;;;;;;2085940;28;20658;-71
2023/01/28 04:54:48;;;;;;;1.08;0.45;;;;;;;;;;2087949;28;20033;-70
2023/01/28 04:56:07;;;;;;;5.00;0.85;;;;;;;;;;2087724;28;20511;-71
2023/01/28 04:57:26;;;;;;;0.63;0.50;;;;;;;;;;2086912;28;20029;-71
2023/01/28 04:58:45;;;;;;;1.85;0.63;;;;;;;;;;2089320;28;20479;-70
2023/01/28 05:00:04;;;;;;;8.52;1.15;;;;;;;;;;2087407;28;20024;-70
2023/01/28 05:01:23;;;;;;;1.45;0.60;;;;;;;;;;2085488;28;20720;-71
2023/01/28 05:02:42;;;;;;;3.15;0.85;;;;;;;;;;2083671;28;20505;-71
2023/01/28 05:04:04;;;;;;;1.52;0.60;;;;;;;;;;2088665;28;20033;-70
2023/01/28 05:05:23;;;;;;;1.45;0.70;;;;;;;;;;2088672;28;21451;-70
2023/01/28 05:06:42;;;;;;;0.52;0.40;;;;;;;;;;2089500;28;20473;-70
2023/01/28 05:08:01;;;;;;;1.17;0.40;;;;;;;;;;2085607;28;20029;-70
2023/01/28 05:09:20;;;;;;;1.67;0.70;;;;;;;;;;2086851;28;20021;-70
2023/01/28 05:10:39;;;;;;;1.95;0.50;;;;;;;;;;2089915;28;20079;-70
2023/01/28 05:11:58;;;;;;;3.67;0.52;;;;;;;;;;2083952;28;20038;-70
2023/01/28 05:13:17;;;;;;;1.15;0.60;;;;;;;;;;2085764;28;20033;-70
2023/01/28 05:14:36;;;;;;;3.05;0.60;;;;;;;;;;2090755;28;20424;-70
2023/01/28 05:15:55;;;;;;;2.25;0.70;;;;;;;;;;2087106;28;20393;-70
2023/01/28 05:17:14;;;;;;;4.28;0.75;;;;;;;;;;2087736;28;20037;-70
2023/01/28 05:18:33;;;;;;;4.22;1.45;;;;;;;;;;2085772;28;20721;-70
2023/01/28 05:19:52;;;;;;;0.98;0.40;;;;;;;;;;2086053;28;21483;-70
2023/01/28 05:21:10;;;;;;;1.05;0.40;;;;;;;;;;2082971;28;20061;-70
2023/01/28 05:22:29;;;;;;;2.17;0.60;;;;;;;;;;2088784;28;20396;-70
2023/01/28 05:23:48;;;;;;;0.95;0.52;;;;;;;;;;2085002;28;20040;-70
2023/01/28 05:25:08;;;;;;;2.50;0.63;;;;;;;;;;2088039;28;20074;-70
2023/01/28 05:26:27;;;;;;;3.97;1.05;;;;;;;;;;2083298;28;20076;-70
2023/01/28 05:27:50;;;;;;;1.92;0.60;;;;;;;;;;2085916;28;20021;-70
2023/01/28 05:29:09;;;;;;;;;;;;;;;;;;2083848;28;20041;-70
2023/01/28 05:30:28;;;;;;;3.08;0.55;;;;;;;;;;2089204;28;19908;-70
2023/01/28 05:31:47;;;;;;;1.75;0.57;;;;;;;;;;2087274;28;20033;-70
2023/01/28 05:33:06;;;;;;;2.15;0.60;;;;;;;;;;2088088;28;20494;-70
2023/01/28 05:34:24;;;;;;;2.38;0.70;;;;;;;;;;2088804;28;20037;-70
2023/01/28 05:35:43;;;;;;;1.52;0.50;;;;;;;;;;2088121;28;20398;-71
2023/01/28 05:37:02;;;;;;;3.13;0.60;;;;;;;;;;2088655;28;20409;-70
2023/01/28 05:38:21;;;;;;;0.90;0.40;;;;;;;;;;2086462;28;20033;-70
2023/01/28 05:39:40;;;;;;;1.40;0.70;;;;;;;;;;2086289;28;20025;-70
2023/01/28 05:40:59;;;;;;;2.78;0.60;;;;;;;;;;2085390;28;20025;-70
2023/01/28 05:42:19;;;;;;;2.40;0.40;;;;;;;;;;2087008;28;20029;-70
2023/01/28 05:43:38;;;;;;;3.10;0.82;;;;;;;;;;2088425;28;20432;-70
2023/01/28 05:44:58;;;;;;;3.53;0.50;;;;;;;;;;2086649;28;20033;-70
2023/01/28 05:46:17;;;;;;;2.72;0.50;;;;;;;;;;2082060;28;20025;-70
2023/01/28 05:47:36;;;;;;;1.00;0.47;;;;;;;;;;2086259;28;20036;-70
2023/01/28 05:48:55;;;;;;;1.45;0.60;;;;;;;;;;2085772;28;20037;-70
2023/01/28 05:50:14;;;;;;;2.17;0.85;;;;;;;;;;2088975;28;20485;-71
2023/01/28 05:51:33;;;;;;;1.05;0.65;;;;;;;;;;2084517;28;20049;-70
2023/01/28 05:52:52;;;;;;;2.53;0.57;;;;;;;;;;2087092;28;20037;-71
2023/01/28 05:54:11;;;;;;;2.95;0.40;;;;;;;;;;2085078;28;20439;-71
2023/01/28 05:55:29;;;;;;;2.80;0.50;;;;;;;;;;2087155;28;21812;-71
2023/01/28 05:56:48;;;;;;;1.77;0.80;;;;;;;;;;2087548;28;22510;-71
2023/01/28 05:58:07;;;;;;;4.93;0.60;;;;;;;;;;2088300;28;20502;-71
2023/01/28 05:59:26;;;;;;;2.22;0.57;;;;;;;;;;2086379;28;20123;-70
2023/01/28 06:00:45;;;;;;;5.22;0.63;;;;;;;;;;2086597;28;20025;-71
2023/01/28 06:02:04;;;;;;;1.25;0.57;;;;;;;;;;2085095;28;20024;-70
2023/01/28 06:03:23;;;;;;;0.88;0.45;;;;;;;;;;2084847;28;20025;-70
2023/01/28 06:04:42;;;;;;;3.60;0.70;;;;;;;;;;2085971;28;20116;-70
2023/01/28 06:06:01;;;;;;;2.83;0.60;;;;;;;;;;2086891;28;20104;-70
2023/01/28 06:07:20;;;;;;;1.00;0.50;;;;;;;;;;2085355;28;21413;-70
2023/01/28 06:08:39;;;;;;;1.35;0.60;;;;;;;;;;2084631;28;20036;-70
2023/01/28 06:09:58;;;;;;;2.90;0.70;;;;;;;;;;2086659;28;20033;-70
2023/01/28 06:11:17;;;;;;;4.10;0.50;;;;;;;;;;2089642;28;20044;-70
2023/01/28 06:12:36;;;;;;;2.33;0.85;;;;;;;;;;2085032;28;21713;-70
2023/01/28 06:13:55;;;;;;;0.65;0.60;;;;;;;;;;2091005;28;20447;-70
2023/01/28 06:15:14;;;;;;;3.45;0.75;;;;;;;;;;2085771;28;20029;-70
2023/01/28 06:16:33;;;;;;;4.88;0.95;;;;;;;;;;2084664;28;20589;-70
2023/01/28 06:17:52;;;;;;;1.27;0.82;;;;;;;;;;2089731;28;20040;-70
2023/01/28 06:19:11;;;;;;;2.60;0.68;;;;;;;;;;2087379;28;20025;-70
2023/01/28 06:20:30;;;;;;;5.95;0.70;;;;;;;;;;2087097;28;20560;-70
2023/01/28 06:21:49;;;;;;;2.80;0.73;;;;;;;;;;2086897;28;20033;-70
2023/01/28 06:23:08;;;;;;;3.50;0.50;;;;;;;;;;2086222;28;20048;-71
2023/01/28 06:24:27;;;;;;;1.60;1.00;;;;;;;;;;2086724;28;20053;-70
2023/01/28 06:25:46;;;;;;;2.47;0.50;;;;;;;;;;2088549;28;20021;-70
2023/01/28 06:27:05;;;;;;;2.95;0.60;;;;;;;;;;2083858;28;20029;-70
2023/01/28 06:28:24;;;;;;;6.30;0.63;;;;;;;;;;2084091;28;20119;-70
2023/01/28 06:29:44;;;;;;;4.00;0.63;;;;;;;;;;2082549;28;20033;-70
2023/01/28 06:31:03;;;;;;;0.93;0.50;;;;;;;;;;2084059;28;20112;-70
2023/01/28 06:32:22;;;;;;;2.13;0.70;;;;;;;;;;2086304;28;20037;-70
2023/01/28 06:33:41;;;;;;;1.70;0.40;;;;;;;;;;2084331;28;20044;-70
2023/01/28 06:35:00;;;;;;;3.67;0.60;;;;;;;;;;2083754;28;20045;-70
2023/01/28 06:36:19;;;;;;;1.77;0.90;;;;;;;;;;2088362;28;20037;-70
2023/01/28 06:37:38;;;;;;;1.67;0.50;;;;;;;;;;2090070;28;20032;-69
2023/01/28 06:38:57;;;;;;;2.28;0.40;;;;;;;;;;2085347;28;20028;-71
2023/01/28 06:40:16;;;;;;;0.93;0.55;;;;;;;;;;2086807;28;20021;-70
2023/01/28 06:41:35;;;;;;;2.80;0.80;;;;;;;;;;2084051;28;20497;-71
2023/01/28 06:42:54;;;;;;;4.85;0.77;;;;;;;;;;2085648;28;20029;-70
2023/01/28 06:44:13;;;;;;;3.20;0.55;;;;;;;;;;2089801;28;20021;-70
2023/01/28 06:45:32;;;;;;;3.58;0.80;;;;;;;;;;2088384;28;20036;-70
2023/01/28 06:46:50;;;;;;;3.00;0.70;;;;;;;;;;2088609;28;20036;-71
2023/01/28 06:48:09;;;;;;;3.50;0.50;;;;;;;;;;2084443;28;20037;-70
2023/01/28 06:49:29;;;;;;;3.25;0.60;;;;;;;;;;2087078;28;20041;-70
2023/01/28 06:50:48;;;;;;;1.83;0.60;;;;;;;;;;2089213;28;20061;-71
2023/01/28 06:52:07;;;;;;;1.50;0.60;;;;;;;;;;2085195;28;20048;-70
2023/01/28 06:53:26;;;;;;;3.65;0.52;;;;;;;;;;2087297;28;20017;-70
2023/01/28 06:54:46;;;;;;;0.68;0.68;;;;;;;;;;2085658;28;20045;-70
2023/01/28 06:56:05;;;;;;;1.55;0.57;;;;;;;;;;2084407;28;20083;-70
2023/01/28 06:57:24;;;;;;;5.40;0.80;;;;;;;;;;2085537;28;20496;-71
2023/01/28 06:58:43;;;;;;;3.65;0.45;;;;;;;;;;2086423;28;20029;-70
2023/01/28 07:00:03;;;;;;;2.30;0.88;;;;;;;;;;2086402;28;20029;-70
2023/01/28 07:01:22;;;;;;;1.27;0.68;;;;;;;;;;2094331;28;20037;-70
2023/01/28 07:02:41;;;;;;;2.53;0.60;;;;;;;;;;2085019;28;20112;-70
2023/01/28 07:04:00;;;;;;;3.40;0.73;;;;;;;;;;2089580;28;20028;-71
2023/01/28 07:05:18;;;;;;;1.98;0.68;;;;;;;;;;2084606;28;20060;-70
2023/01/28 07:06:37;;;;;;;2.85;0.63;;;;;;;;;;2086059;28;20033;-70
2023/01/28 07:07:56;;;;;;;2.03;0.80;;;;;;;;;;2086133;28;20025;-71
2023/01/28 07:09:15;;;;;;;4.22;0.82;;;;;;;;;;2086206;28;20024;-71
2023/01/28 07:10:34;;;;;;;2.50;0.90;;;;;;;;;;2085777;28;20037;-70
2023/01/28 07:11:53;;;;;;;3.65;1.00;;;;;;;;;;2083436;28;20040;-71
2023/01/28 07:13:12;;;;;;;3.15;1.05;;;;;;;;;;2086711;28;20028;-71
2023/01/28 07:14:32;;;;;;;2.38;0.65;;;;;;;;;;2086646;28;20033;-71
2023/01/28 07:15:51;;;;;;;2.42;0.70;;;;;;;;;;2084725;28;20037;-70
2023/01/28 07:17:10;;;;;;;5.38;0.90;;;;;;;;;;2089289;28;20033;-70
2023/01/28 07:18:29;;;;;;;5.95;1.33;;;;;;;;;;2085570;28;20029;-70
2023/01/28 07:19:48;;;;;;;1.38;0.50;;;;;;;;;;2089894;28;20060;-70
2023/01/28 07:21:07;;;;;;;6.18;1.35;;;;;;;;;;2082813;28;20115;-70
2023/01/28 07:22:26;;;;;;;6.03;1.20;;;;;;;;;;2083398;28;20235;-70
2023/01/28 07:23:45;;;;;;;2.58;0.68;;;;;;;;;;2086910;28;20025;-72
2023/01/28 07:25:05;;;;;;;3.35;1.15;;;;;;;;;;2083005;28;20112;-70
2023/01/28 07:26:23;;;;;;;6.03;0.80;;;;;;;;;;2088793;28;20025;-69
2023/01/28 07:27:50;;;;;;;1.60;0.70;;;;;;;;;;2085290;28;20051;-70
2023/01/28 07:29:09;;;;;;;3.80;0.63;;;;;;;;;;2083785;28;20033;-70
2023/01/28 07:30:28;;;;;;;8.18;1.10;;;;;;;;;;2085021;28;20032;-70
2023/01/28 07:31:47;;;;;;;4.50;0.77;;;;;;;;;;2083898;28;20029;-72
2023/01/28 07:33:06;;;;;;;0.82;0.82;;;;;;;;;;2085215;28;20481;-70
2023/01/28 07:34:25;;;;;;;6.00;0.90;;;;;;;;;;2082550;28;20045;-70
2023/01/28 07:35:44;;;;;;;1.33;0.90;;;;;;;;;;2086874;28;20182;-73
2023/01/28 07:37:03;;;;;;;3.15;0.90;;;;;;;;;;2084721;28;20163;-72
2023/01/28 07:38:22;;;;;;;1.40;0.80;;;;;;;;;;2085303;28;20028;-72
2023/01/28 07:39:41;;;;;;;4.15;0.95;;;;;;;;;;2088745;28;20032;-73
2023/01/28 07:41:00;;;;;;;2.97;0.93;;;;;;;;;;2085812;28;20436;-69
2023/01/28 07:42:19;;;;;;;3.10;1.27;;;;;;;;;;2080809;28;20041;-68
2023/01/28 07:43:38;;;;;;;5.22;3.05;;;;;;;;;;2085425;28;20028;-68
2023/01/28 07:44:57;;;;;;;2.50;1.02;;;;;;;;;;2085231;28;20024;-68
2023/01/28 07:46:16;;;;;;;2.53;0.98;;;;;;;;;;2086924;28;20032;-68
2023/01/28 07:47:36;;;;;;;2.50;0.80;;;;;;;;;;2088343;28;20040;-68
2023/01/28 07:48:54;;;;;;;2.13;1.10;;;;;;;;;;2086295;28;20024;-69
2023/01/28 07:50:14;;;;;;;3.65;0.98;;;;;;;;;;2084999;28;20033;-69
2023/01/28 07:51:33;;;;;;;4.22;0.98;;;;;;;;;;2090651;28;20041;-69
2023/01/28 07:52:52;;;;;;;4.22;0.90;;;;;;;;;;2090415;28;20044;-68
2023/01/28 07:54:12;;;;;;;2.55;0.90;;;;;;;;;;2091039;28;20501;-70
2023/01/28 07:55:31;;;;;;;4.30;1.08;;;;;;;;;;2090495;28;20048;-69
2023/01/28 07:56:50;;;;;;;5.60;1.02;;;;;;;;;;2092593;28;20513;-69
2023/01/28 07:58:10;;;;;;;2.70;0.98;;;;;;;;;;2092065;28;20481;-70
2023/01/28 07:59:28;;;;;;;12.43;1.27;;;;;;;;;;2090728;28;20029;-69
2023/01/28 08:00:47;;;;;;;7.63;1.17;;;;;;;;;;2089336;28;20069;-69
2023/01/28 08:02:09;;;;;;;4.32;0.90;;;;;;;;;;2091388;28;20032;-69
2023/01/28 08:03:28;;;;;;;7.47;1.33;;;;;;;;;;2092647;28;20025;-69
2023/01/28 08:04:47;;;;;;;3.22;1.25;;;;;;;;;;2090988;28;20025;-69
2023/01/28 08:06:06;;;;;;;2.30;0.95;;;;;;;;;;2090754;28;20382;-69
2023/01/28 08:07:26;;;;;;;5.32;1.00;;;;;;;;;;2091634;28;20040;-71
2023/01/28 08:08:46;;;;;;;3.58;1.13;;;;;;;;;;2090025;28;20401;-71
2023/01/28 08:10:05;;;;;;;2.35;1.13;;;;;;;;;;2089845;28;20052;-69
2023/01/28 08:11:24;;;;;;;1.85;0.90;;;;;;;;;;2089839;28;20060;-70
2023/01/28 08:12:50;;;;;;;4.65;1.65;;;;;;;;;;2091579;28;20041;-69
2023/01/28 08:14:10;;;;;;;2.75;1.23;;;;;;;;;;2091719;28;20049;-69
2023/01/28 08:15:29;;;;;;;3.60;1.20;;;;;;;;;;2091389;28;20045;-71
2023/01/28 08:16:48;;;;;;;3.88;1.27;;;;;;;;;;2089945;28;20041;-70
2023/01/28 08:18:08;;;;;;;4.60;1.40;;;;;;;;;;2090832;28;20041;-70
2023/01/28 08:19:27;;;;;;;5.82;1.45;;;;;;;;;;2091839;28;20029;-70
2023/01/28 08:20:46;;;;;;;8.55;1.55;;;;;;;;;;2091857;28;20025;-70
2023/01/28 08:22:05;;;;;;;4.25;1.40;;;;;;;;;;2091338;28;20334;-70
2023/01/28 08:23:28;;;;;;;3.15;1.17;;;;;;;;;;2093618;28;20425;-71
2023/01/28 08:24:46;;;;;;;5.63;1.58;;;;;;;;;;2093052;28;20458;-70
2023/01/28 08:26:06;;;;;;;4.15;1.60;;;;;;;;;;2090260;28;20048;-70
2023/01/28 08:27:25;;;;;;;3.92;1.50;;;;;;;;;;2088300;28;20028;-70
2023/01/28 08:28:44;;;;;;;4.82;1.42;;;;;;;;;;2090607;28;20485;-70
2023/01/28 08:30:03;;;;;;;1.60;1.10;;;;;;;;;;2092203;28;20037;-70
2023/01/28 08:31:22;;;;;;;2.80;1.05;;;;;;;;;;2087225;28;20119;-70
2023/01/28 08:32:41;;;;;;;9.13;1.60;;;;;;;;;;2091130;28;20127;-70